Time;durP1;ratioP1;P1;durP2;ratioP2;P2;SDS_P1;SDS_P2;PMS_P1;PMS_P2;Temp;Humidity;BMP_temperature;BMP_pressure;BME280_temperature;BME280_humidity;BME280_pressure;Samples;Min_cycle;Max_cycle;Signal;HPM_P1;HPM_P2
2022/05/21 00:01:04;;;;;;;0.85;0.73;;;10.80;99.90;;;;;;5015705;28;20441;-84
2022/05/21 00:03:32;;;;;;;0.88;0.77;;;10.80;99.90;;;;;;5009201;28;20413;-83
2022/05/21 00:06:00;;;;;;;0.90;0.83;;;10.80;99.90;;;;;;5005748;28;20978;-83
2022/05/21 00:08:34;;;;;;;0.93;0.73;;;10.80;99.90;;;;;;5016236;28;20441;-84
2022/05/21 00:11:02;;;;;;;0.88;0.75;;;10.70;99.90;;;;;;4997275;28;20405;-83
2022/05/21 00:13:30;;;;;;;1.80;0.85;;;10.80;99.90;;;;;;5003586;28;20431;-83
2022/05/21 00:15:58;;;;;;;1.17;0.70;;;10.80;99.90;;;;;;5010937;28;20401;-84
2022/05/21 00:18:25;;;;;;;1.17;0.80;;;10.80;99.90;;;;;;5010505;28;20403;-82
2022/05/21 00:20:53;;;;;;;1.23;0.70;;;10.80;99.90;;;;;;5006643;28;20399;-83
2022/05/21 00:23:31;;;;;;;0.82;0.70;;;10.90;99.90;;;;;;5005842;28;20462;-82
2022/05/21 00:26:06;;;;;;;0.70;0.70;;;10.80;99.90;;;;;;4997088;28;20401;-83
2022/05/21 00:28:35;;;;;;;1.10;0.75;;;10.70;99.90;;;;;;5003382;28;20434;-84
2022/05/21 00:31:05;;;;;;;1.08;0.70;;;10.70;99.90;;;;;;5010236;28;20398;-84
2022/05/21 00:33:33;;;;;;;1.00;0.80;;;10.70;99.90;;;;;;5014928;28;20534;-83
2022/05/21 00:36:01;;;;;;;1.30;0.73;;;10.70;99.90;;;;;;5008429;28;20390;-83
2022/05/21 00:38:29;;;;;;;0.70;0.70;;;10.70;99.90;;;;;;5011615;28;20850;-83
2022/05/21 00:40:57;;;;;;;1.27;0.70;;;10.70;99.90;;;;;;5018245;28;20412;-84
2022/05/21 00:43:45;;;;;;;0.60;0.60;;;10.70;99.90;;;;;;5015613;28;20411;-83
2022/05/21 00:46:24;;;;;;;2.00;0.90;;;10.80;99.90;;;;;;5014095;28;20403;-83
2022/05/21 00:49:05;;;;;;;0.55;0.55;;;10.80;99.90;;;;;;4991322;28;20393;-84
2022/05/21 00:51:43;;;;;;;0.70;0.52;;;10.70;99.90;;;;;;5000245;28;20421;-84
2022/05/21 00:54:14;;;;;;;0.60;0.60;;;10.70;99.90;;;;;;5019238;28;20386;-84
2022/05/21 00:56:54;;;;;;;0.98;0.60;;;10.70;99.90;;;;;;5021289;28;20391;-83
2022/05/21 01:02:08;;;;;;;0.70;0.60;;;10.70;99.90;;;;;;5014471;28;20417;-84
2022/05/21 01:04:37;;;;;;;0.50;0.50;;;10.80;99.90;;;;;;5022902;28;20411;-83
2022/05/21 01:07:06;;;;;;;1.40;0.60;;;10.60;99.90;;;;;;5024136;28;20929;-83
2022/05/21 01:09:35;;;;;;;0.70;0.50;;;10.70;99.90;;;;;;5012817;28;20406;-83
2022/05/21 01:12:04;;;;;;;0.63;0.60;;;10.70;99.90;;;;;;5021226;28;20479;-83
2022/05/21 01:14:32;;;;;;;0.80;0.55;;;10.80;99.90;;;;;;5018597;28;20897;-83
2022/05/21 01:17:01;;;;;;;0.50;0.50;;;10.80;99.90;;;;;;5025142;28;20440;-82
2022/05/21 01:19:29;;;;;;;0.63;0.50;;;10.70;99.90;;;;;;5052254;28;20799;-83
2022/05/21 01:21:58;;;;;;;0.80;0.55;;;10.70;99.90;;;;;;5020082;28;20437;-83
2022/05/21 01:24:26;;;;;;;0.80;0.50;;;10.60;99.90;;;;;;5016551;28;20411;-83
2022/05/21 01:26:54;;;;;;;0.57;0.55;;;10.60;99.90;;;;;;5020579;28;20401;-84
2022/05/21 01:29:25;;;;;;;0.60;0.50;;;10.60;99.90;;;;;;5023120;28;20429;-83
2022/05/21 01:31:54;;;;;;;0.50;0.50;;;10.60;99.90;;;;;;5020889;28;20429;-84
2022/05/21 01:34:22;;;;;;;0.45;0.45;;;10.60;99.90;;;;;;5020510;28;20402;-83
2022/05/21 01:36:51;;;;;;;0.60;0.47;;;10.70;99.90;;;;;;5019137;28;20433;-83
2022/05/21 01:39:19;;;;;;;0.80;0.40;;;10.70;99.90;;;;;;5014567;28;20425;-83
2022/05/21 01:41:47;;;;;;;0.45;0.43;;;10.70;99.90;;;;;;5049600;28;20972;-83
2022/05/21 01:47:01;;;;;;;0.73;0.40;;;10.50;99.90;;;;;;5012115;28;20426;-83
2022/05/21 01:49:28;;;;;;;0.60;0.40;;;10.60;99.90;;;;;;5005280;28;20417;-84
2022/05/21 01:51:56;;;;;;;0.40;0.40;;;10.60;99.90;;;;;;4996507;28;20485;-83
2022/05/21 01:54:24;;;;;;;0.40;0.40;;;10.60;99.90;;;;;;4999048;28;20505;-84
2022/05/21 01:56:51;;;;;;;0.60;0.50;;;10.60;99.90;;;;;;5011033;28;20409;-83
2022/05/21 01:59:20;;;;;;;0.30;0.30;;;10.60;99.90;;;;;;5012501;28;20412;-84
2022/05/21 02:01:48;;;;;;;0.50;0.45;;;10.60;99.90;;;;;;5006486;28;20720;-83
2022/05/21 02:04:18;;;;;;;0.40;0.40;;;10.60;99.90;;;;;;5006170;28;20405;-84
2022/05/21 02:06:46;;;;;;;0.70;0.40;;;10.50;99.90;;;;;;5004571;28;20877;-84
2022/05/21 02:09:15;;;;;;;0.47;0.47;;;10.60;99.90;;;;;;5013544;28;20623;-84
2022/05/21 02:11:43;;;;;;;0.50;0.50;;;10.60;99.90;;;;;;5039362;28;20415;-84
2022/05/21 02:14:11;;;;;;;0.50;0.50;;;10.60;99.90;;;;;;4998484;28;20434;-83
2022/05/21 02:16:40;;;;;;;0.80;0.40;;;10.60;99.90;;;;;;5037787;28;20932;-83
2022/05/21 02:19:08;;;;;;;0.50;0.50;;;10.60;99.90;;;;;;5009987;28;20465;-83
2022/05/21 02:21:38;;;;;;;0.50;0.45;;;10.60;99.90;;;;;;5003075;28;20404;-83
2022/05/21 02:24:08;;;;;;;0.43;0.43;;;10.60;99.90;;;;;;5010293;28;20433;-83
2022/05/21 02:26:37;;;;;;;0.40;0.40;;;10.50;99.90;;;;;;5013240;28;20462;-84
2022/05/21 02:29:06;;;;;;;0.50;0.50;;;10.60;99.90;;;;;;5010434;28;20403;-83
2022/05/21 02:31:34;;;;;;;0.50;0.40;;;10.60;99.90;;;;;;5008799;28;20405;-85
2022/05/21 02:34:02;;;;;;;1.20;0.50;;;10.60;99.90;;;;;;5002577;28;20445;-83
2022/05/21 02:39:30;;;;;;;0.40;0.40;;;10.60;99.90;;;;;;5011345;28;20395;-84
2022/05/21 02:41:59;;;;;;;0.80;0.45;;;10.60;99.90;;;;;;5006411;28;20397;-84
2022/05/21 02:44:29;;;;;;;0.50;0.50;;;10.60;99.90;;;;;;5022104;28;20435;-84
2022/05/21 02:46:56;;;;;;;0.50;0.50;;;10.60;99.90;;;;;;5009709;28;20803;-84
2022/05/21 02:49:24;;;;;;;0.50;0.50;;;10.60;99.90;;;;;;5016241;28;20383;-83
2022/05/21 02:51:53;;;;;;;1.00;0.40;;;10.50;99.90;;;;;;5021715;28;20417;-85
2022/05/21 02:54:20;;;;;;;0.90;0.40;;;10.40;99.90;;;;;;4997679;28;20512;-84
2022/05/21 02:56:50;;;;;;;0.60;0.60;;;10.50;99.90;;;;;;5019976;28;20888;-84
2022/05/21 02:59:18;;;;;;;0.70;0.50;;;10.40;99.90;;;;;;4992328;28;20388;-83
2022/05/21 03:01:46;;;;;;;0.40;0.40;;;10.50;99.90;;;;;;5016189;28;20566;-84
2022/05/21 03:04:14;;;;;;;0.50;0.50;;;10.50;99.90;;;;;;5014415;28;20385;-83
2022/05/21 03:06:42;;;;;;;0.50;0.50;;;10.50;99.90;;;;;;5019469;28;20411;-85
2022/05/21 03:11:55;;;;;;;0.60;0.47;;;10.50;99.90;;;;;;5016165;28;20876;-84
2022/05/21 03:14:23;;;;;;;0.60;0.50;;;10.50;99.90;;;;;;5018406;28;20382;-83
2022/05/21 03:16:56;;;;;;;0.60;0.60;;;10.50;99.90;;;;;;5021756;28;20756;-84
2022/05/21 03:19:28;;;;;;;0.50;0.50;;;10.50;99.90;;;;;;5013704;28;20399;-83
2022/05/21 03:21:57;;;;;;;0.53;0.50;;;10.50;99.90;;;;;;5004783;28;20895;-84
2022/05/21 03:24:26;;;;;;;0.50;0.50;;;10.50;99.90;;;;;;5007524;28;20401;-83
2022/05/21 03:26:53;;;;;;;1.38;0.70;;;10.40;99.90;;;;;;5047223;28;20811;-83
2022/05/21 03:29:21;;;;;;;0.55;0.55;;;10.30;99.90;;;;;;5009775;28;20434;-83
2022/05/21 03:31:49;;;;;;;0.57;0.57;;;10.30;99.90;;;;;;5009562;28;20434;-82
2022/05/21 03:34:18;;;;;;;0.60;0.50;;;10.40;99.90;;;;;;5020751;28;20759;-83
2022/05/21 03:36:46;;;;;;;0.80;0.70;;;10.40;99.90;;;;;;5008532;28;20405;-82
2022/05/21 03:39:13;;;;;;;0.60;0.60;;;10.30;99.90;;;;;;5012113;28;20439;-83
2022/05/21 03:41:42;;;;;;;0.82;0.60;;;10.30;99.90;;;;;;4996346;28;21027;-83
2022/05/21 03:44:09;;;;;;;0.77;0.70;;;10.20;99.90;;;;;;5017022;28;20442;-83
2022/05/21 03:46:38;;;;;;;0.90;0.60;;;10.30;99.90;;;;;;5014802;28;20398;-82
2022/05/21 03:49:06;;;;;;;0.60;0.60;;;10.40;99.90;;;;;;5010984;28;20389;-82
2022/05/21 03:51:34;;;;;;;0.50;0.50;;;10.30;99.90;;;;;;5014693;28;20460;-82
2022/05/21 03:54:02;;;;;;;0.90;0.50;;;10.30;99.90;;;;;;5009594;28;20508;-84
2022/05/21 03:56:31;;;;;;;0.60;0.60;;;10.40;99.90;;;;;;5019236;28;20759;-84
2022/05/21 03:58:58;;;;;;;1.60;0.70;;;10.30;99.90;;;;;;5009741;28;20474;-84
2022/05/21 04:01:26;;;;;;;0.52;0.52;;;10.20;99.90;;;;;;5014035;28;20437;-84
2022/05/21 04:03:56;;;;;;;0.77;0.60;;;10.20;99.90;;;;;;5007198;28;20459;-84
2022/05/21 04:06:23;;;;;;;0.77;0.70;;;10.20;99.90;;;;;;4992789;28;20446;-84
2022/05/21 04:08:51;;;;;;;0.60;0.60;;;10.10;99.90;;;;;;5010436;28;20424;-83
2022/05/21 04:11:20;;;;;;;0.75;0.55;;;10.10;99.90;;;;;;5015081;28;20411;-84
2022/05/21 04:13:47;;;;;;;0.60;0.60;;;10.10;99.90;;;;;;5014575;28;20412;-84
2022/05/21 04:16:15;;;;;;;0.80;0.80;;;10.10;99.90;;;;;;5013448;28;20456;-83
2022/05/21 04:18:43;;;;;;;1.00;0.60;;;10.10;99.90;;;;;;5048538;28;20403;-83
2022/05/21 04:21:11;;;;;;;0.80;0.77;;;10.20;99.90;;;;;;5020835;28;20411;-84
2022/05/21 04:23:39;;;;;;;0.80;0.80;;;10.10;99.90;;;;;;5017285;28;20852;-83
2022/05/21 04:26:06;;;;;;;0.70;0.70;;;10.10;99.90;;;;;;5012910;28;20405;-85
2022/05/21 04:28:34;;;;;;;0.93;0.70;;;10.10;99.90;;;;;;5018258;28;20495;-84
2022/05/21 04:31:02;;;;;;;1.05;0.75;;;10.00;99.90;;;;;;5014460;28;20976;-83
2022/05/21 04:33:30;;;;;;;0.80;0.80;;;10.00;99.90;;;;;;5015180;28;20409;-83
2022/05/21 04:38:49;;;;;;;1.00;0.90;;;10.00;99.90;;;;;;5012468;28;20385;-83
2022/05/21 04:41:18;;;;;;;0.95;0.90;;;10.00;99.90;;;;;;5006980;28;20439;-84
2022/05/21 04:43:46;;;;;;;1.30;0.90;;;10.00;99.90;;;;;;5009801;28;20442;-83
2022/05/21 04:46:15;;;;;;;1.00;0.90;;;10.00;99.90;;;;;;5020419;28;20650;-82
2022/05/21 04:48:45;;;;;;;0.93;0.90;;;10.00;99.90;;;;;;5009573;28;20391;-84
2022/05/21 04:51:31;;;;;;;1.10;0.90;;;10.10;99.90;;;;;;5017613;28;20488;-84
2022/05/21 04:53:59;;;;;;;2.10;1.00;;;10.10;99.90;;;;;;5023350;28;20906;-84
2022/05/21 04:56:28;;;;;;;1.10;1.00;;;10.00;99.90;;;;;;5049570;27;20414;-85
2022/05/21 04:59:11;;;;;;;0.90;0.80;;;10.00;99.90;;;;;;5001327;28;20392;-83
2022/05/21 05:01:40;;;;;;;1.67;1.05;;;10.10;99.90;;;;;;5018954;28;20719;-83
2022/05/21 05:04:09;;;;;;;1.48;1.10;;;10.10;99.90;;;;;;5012749;28;20401;-84
2022/05/21 05:06:38;;;;;;;1.30;0.90;;;10.10;99.90;;;;;;5016049;28;20446;-83
2022/05/21 05:09:08;;;;;;;1.90;1.02;;;10.10;99.90;;;;;;5018584;28;20781;-84
2022/05/21 05:11:36;;;;;;;1.30;1.20;;;10.10;99.90;;;;;;5046911;28;20413;-84
2022/05/21 05:14:04;;;;;;;1.30;1.08;;;10.00;99.90;;;;;;5018695;28;20891;-84
2022/05/21 05:16:31;;;;;;;1.50;1.20;;;10.00;99.90;;;;;;5011295;28;20482;-84
2022/05/21 05:18:59;;;;;;;2.30;1.20;;;10.00;99.90;;;;;;5019380;28;20404;-83
2022/05/21 05:21:27;;;;;;;1.70;1.40;;;10.00;99.90;;;;;;4995395;28;20417;-85
2022/05/21 05:23:54;;;;;;;1.88;1.10;;;10.00;99.90;;;;;;5021674;28;20395;-83
2022/05/21 05:26:22;;;;;;;1.90;1.40;;;9.80;99.90;;;;;;5008383;28;20792;-83
2022/05/21 05:28:51;;;;;;;1.48;1.30;;;9.80;99.90;;;;;;5009280;28;20420;-83
2022/05/21 05:31:18;;;;;;;1.40;1.20;;;9.80;99.90;;;;;;5016134;28;20427;-83
2022/05/21 05:33:46;;;;;;;1.85;1.23;;;9.90;99.90;;;;;;4998696;28;20423;-81
2022/05/21 05:36:14;;;;;;;1.13;1.03;;;9.80;99.90;;;;;;5010499;28;20422;-85
2022/05/21 05:38:42;;;;;;;1.30;1.10;;;9.80;99.90;;;;;;5011573;28;20401;-84
2022/05/21 05:41:10;;;;;;;1.73;1.15;;;9.90;99.90;;;;;;5023983;28;20410;-84
2022/05/21 05:43:44;;;;;;;1.17;1.08;;;9.90;99.90;;;;;;5040275;28;20401;-84
2022/05/21 05:46:12;;;;;;;1.52;1.13;;;9.90;99.90;;;;;;5020056;28;20971;-85
2022/05/21 05:48:40;;;;;;;1.47;1.20;;;9.90;99.90;;;;;;5008284;28;20410;-85
2022/05/21 05:51:07;;;;;;;1.38;1.17;;;10.00;99.90;;;;;;5004520;28;20403;-85
2022/05/21 05:53:35;;;;;;;2.10;1.10;;;10.00;99.90;;;;;;5008058;28;20795;-85
2022/05/21 05:56:08;;;;;;;1.38;1.27;;;10.00;99.90;;;;;;5002064;28;20424;-84
2022/05/21 06:01:23;;;;;;;1.42;1.00;;;10.00;99.90;;;;;;5019653;28;20766;-85
2022/05/21 06:03:51;;;;;;;2.05;1.10;;;10.00;99.90;;;;;;5008531;28;20407;-83
2022/05/21 06:06:19;;;;;;;1.20;0.90;;;9.90;99.90;;;;;;5005740;28;20396;-84
2022/05/21 06:08:47;;;;;;;1.20;1.10;;;9.90;99.90;;;;;;5010163;28;20386;-85
2022/05/21 06:11:16;;;;;;;1.58;1.10;;;9.90;99.90;;;;;;5016409;28;20523;-85
2022/05/21 06:13:44;;;;;;;1.33;0.93;;;10.00;99.90;;;;;;5011241;28;20413;-83
2022/05/21 06:16:13;;;;;;;1.40;1.10;;;9.90;99.90;;;;;;5011204;28;20450;-84
2022/05/21 06:18:43;;;;;;;1.00;0.90;;;9.80;99.90;;;;;;5015105;28;20522;-84
2022/05/21 06:21:11;;;;;;;1.00;0.90;;;9.80;99.90;;;;;;5016107;28;20515;-84
2022/05/21 06:23:38;;;;;;;1.00;0.90;;;9.80;99.90;;;;;;5016158;28;20442;-85
2022/05/21 06:26:06;;;;;;;1.05;0.90;;;9.80;99.90;;;;;;5010776;28;20413;-84
2022/05/21 06:28:35;;;;;;;1.00;0.90;;;9.80;99.90;;;;;;5013085;28;20766;-83
2022/05/21 06:31:03;;;;;;;2.38;1.00;;;9.80;99.90;;;;;;5017789;28;20982;-84
2022/05/21 06:33:31;;;;;;;1.60;1.10;;;9.80;99.90;;;;;;5010363;28;20434;-84
2022/05/21 06:36:05;;;;;;;1.23;0.88;;;9.90;99.90;;;;;;5022898;28;20390;-86
2022/05/21 06:38:34;;;;;;;1.30;1.00;;;9.90;99.90;;;;;;5010868;28;20500;-84
2022/05/21 06:41:03;;;;;;;1.60;1.00;;;9.80;99.90;;;;;;5016917;28;20414;-86
2022/05/21 06:43:31;;;;;;;0.82;0.80;;;9.80;99.90;;;;;;5011847;28;20409;-84
2022/05/21 06:45:58;;;;;;;1.55;1.02;;;9.90;99.90;;;;;;5013285;28;20405;-84
2022/05/21 06:48:26;;;;;;;1.65;1.23;;;9.80;99.90;;;;;;5014392;28;20472;-85
2022/05/21 06:50:57;;;;;;;1.45;1.20;;;9.80;99.90;;;;;;4997160;28;20416;-84
2022/05/21 06:53:24;;;;;;;2.72;1.38;;;9.80;99.90;;;;;;5016842;28;20402;-85
2022/05/21 06:55:54;;;;;;;2.20;1.30;;;9.70;99.90;;;;;;5000161;28;20413;-85
2022/05/21 06:58:22;;;;;;;1.98;1.10;;;9.70;99.90;;;;;;5008524;28;20389;-85
2022/05/21 07:00:52;;;;;;;2.40;1.30;;;9.70;99.90;;;;;;5010545;28;20433;-85
2022/05/21 07:03:21;;;;;;;1.27;1.10;;;9.80;99.90;;;;;;5014318;28;20494;-84
2022/05/21 07:08:36;;;;;;;1.35;0.88;;;9.80;99.90;;;;;;5010221;28;20446;-84
2022/05/21 07:11:03;;;;;;;1.10;1.00;;;9.90;99.90;;;;;;5016705;28;20409;-85
2022/05/21 07:13:33;;;;;;;1.37;1.00;;;9.80;99.90;;;;;;5012967;28;20490;-84
2022/05/21 07:16:01;;;;;;;1.10;1.00;;;9.80;99.90;;;;;;5006224;28;20435;-84
2022/05/21 07:18:29;;;;;;;1.10;0.93;;;9.80;99.90;;;;;;5018506;28;20404;-84
2022/05/21 07:20:57;;;;;;;1.05;0.93;;;9.80;99.90;;;;;;5017066;28;20478;-84
2022/05/21 07:23:26;;;;;;;1.23;1.00;;;9.90;99.90;;;;;;5017345;28;20458;-84
2022/05/21 07:25:55;;;;;;;1.60;0.90;;;9.90;99.90;;;;;;5012407;28;20913;-84
2022/05/21 07:28:23;;;;;;;1.30;1.00;;;9.90;99.90;;;;;;5013061;28;20719;-85
2022/05/21 07:30:51;;;;;;;1.70;1.20;;;9.90;99.90;;;;;;5011561;28;20940;-84
2022/05/21 07:33:21;;;;;;;1.13;0.90;;;9.90;99.90;;;;;;5015269;28;20379;-83
2022/05/21 07:35:50;;;;;;;1.80;1.10;;;9.90;99.90;;;;;;5015007;28;20756;-84
2022/05/21 07:38:19;;;;;;;1.58;0.98;;;9.80;99.90;;;;;;5009802;28;20413;-84
2022/05/21 07:40:48;;;;;;;1.25;1.00;;;9.80;99.90;;;;;;5011837;28;20476;-84
2022/05/21 07:43:18;;;;;;;1.67;1.08;;;9.70;99.90;;;;;;5015900;28;20387;-84
2022/05/21 07:45:47;;;;;;;1.38;1.00;;;9.70;99.90;;;;;;5014074;28;20491;-87
2022/05/21 07:48:18;;;;;;;2.13;1.20;;;9.80;99.90;;;;;;5021780;28;20403;-84
2022/05/21 07:50:49;;;;;;;1.48;1.10;;;9.80;99.90;;;;;;4990178;28;20392;-85
2022/05/21 07:53:20;;;;;;;2.50;1.58;;;9.70;99.90;;;;;;5009495;28;20415;-85
2022/05/21 07:55:51;;;;;;;2.55;1.50;;;9.70;99.90;;;;;;5008429;28;20401;-84
2022/05/21 07:58:20;;;;;;;2.13;1.23;;;9.70;99.90;;;;;;5015330;28;20391;-84
2022/05/21 08:00:51;;;;;;;3.42;1.60;;;9.60;99.90;;;;;;5046709;28;20895;-84
2022/05/21 08:03:22;;;;;;;3.42;1.45;;;9.60;99.90;;;;;;5013220;28;20399;-85
2022/05/21 08:05:50;;;;;;;2.22;1.13;;;9.60;99.90;;;;;;5026594;28;20389;-84
2022/05/21 08:08:18;;;;;;;2.50;1.33;;;9.60;99.90;;;;;;5006083;28;20397;-85
2022/05/21 08:10:46;;;;;;;2.97;1.38;;;9.70;99.90;;;;;;4995076;28;20412;-84
2022/05/21 08:13:15;;;;;;;1.63;1.33;;;9.60;99.90;;;;;;5014128;28;20886;-84
2022/05/21 08:15:44;;;;;;;2.97;1.63;;;9.60;99.90;;;;;;5014348;28;20434;-84
2022/05/21 08:18:12;;;;;;;2.80;1.50;;;9.70;99.90;;;;;;5012551;28;20759;-84
2022/05/21 08:20:40;;;;;;;3.25;1.63;;;9.60;99.90;;;;;;5017841;28;20402;-84
2022/05/21 08:28:47;;;;;;;2.70;1.73;;;9.60;99.90;;;;;;5015277;28;20495;-87
2022/05/21 08:31:15;;;;;;;2.53;1.60;;;9.50;99.90;;;;;;4999571;28;20397;-84
2022/05/21 08:33:43;;;;;;;2.97;1.60;;;9.50;99.90;;;;;;5032804;28;20437;-85
2022/05/21 08:36:11;;;;;;;2.92;1.83;;;9.50;99.90;;;;;;5017360;28;20394;-84
2022/05/21 08:38:45;;;;;;;4.30;2.07;;;9.50;99.90;;;;;;5027118;28;20409;-84
2022/05/21 08:41:20;;;;;;;4.22;1.83;;;9.50;99.90;;;;;;5014995;28;20403;-85
2022/05/21 08:44:03;;;;;;;2.90;1.90;;;9.50;99.90;;;;;;5013428;28;20416;-86
2022/05/21 08:47:16;;;;;;;4.28;1.75;;;9.60;99.90;;;;;;5025466;28;20409;-84
2022/05/21 08:49:59;;;;;;;3.05;1.95;;;9.60;99.90;;;;;;5042765;28;20393;-84
2022/05/21 08:52:42;;;;;;;3.53;1.83;;;9.80;99.90;;;;;;5011031;28;20923;-85
2022/05/21 08:55:19;;;;;;;4.20;2.07;;;9.80;99.90;;;;;;4991816;28;20902;-84
2022/05/21 08:57:56;;;;;;;3.88;2.00;;;9.60;99.90;;;;;;5007026;28;20412;-84
2022/05/21 09:00:30;;;;;;;4.53;2.00;;;9.60;99.90;;;;;;5001784;28;20491;-84
2022/05/21 09:02:59;;;;;;;2.78;1.70;;;9.60;99.90;;;;;;5015678;28;20425;-83
2022/05/21 09:05:27;;;;;;;2.85;1.75;;;9.60;99.90;;;;;;4998720;28;20487;-84
2022/05/21 09:08:21;;;;;;;2.90;1.70;;;9.70;99.90;;;;;;5010347;28;20405;-84
2022/05/21 09:11:01;;;;;;;2.40;1.60;;;9.60;99.90;;;;;;5004272;28;20409;-84
2022/05/21 09:13:48;;;;;;;2.75;1.70;;;9.60;99.90;;;;;;5009921;28;20820;-85
2022/05/21 09:19:08;;;;;;;2.60;1.90;;;9.50;99.90;;;;;;5017869;28;20421;-85
2022/05/21 09:21:46;;;;;;;3.45;1.90;;;9.50;99.90;;;;;;5019973;28;20982;-84
2022/05/21 09:24:37;;;;;;;4.82;2.20;;;9.60;99.90;;;;;;5011451;28;20404;-84
2022/05/21 09:27:21;;;;;;;3.22;2.10;;;9.60;99.90;;;;;;5049645;28;20405;-83
2022/05/21 09:29:52;;;;;;;3.50;2.05;;;9.60;99.90;;;;;;5010256;28;20848;-82
2022/05/21 09:32:35;;;;;;;2.60;1.70;;;9.60;99.90;;;;;;5005559;28;20405;-84
2022/05/21 09:35:11;;;;;;;3.30;2.00;;;9.60;99.90;;;;;;5013075;28;20398;-85
2022/05/21 09:37:42;;;;;;;2.30;1.65;;;9.50;99.90;;;;;;5007284;28;20488;-84
2022/05/21 09:40:36;;;;;;;1.90;1.60;;;9.50;99.90;;;;;;5015382;28;20403;-85
2022/05/21 09:46:15;;;;;;;2.22;1.42;;;9.60;99.90;;;;;;5011492;28;20411;-84
2022/05/21 09:48:46;;;;;;;2.17;1.30;;;9.50;99.90;;;;;;5020384;28;20407;-85
2022/05/21 09:51:31;;;;;;;2.13;1.60;;;9.50;99.90;;;;;;5023844;28;20396;-85
2022/05/21 09:53:59;;;;;;;2.28;1.50;;;9.60;99.90;;;;;;5010224;28;20423;-85
2022/05/21 09:56:31;;;;;;;2.20;1.50;;;9.50;99.90;;;;;;5012911;28;20404;-84
2022/05/21 09:59:19;;;;;;;1.88;1.40;;;9.50;99.90;;;;;;5000172;28;20468;-84
2022/05/21 10:01:57;;;;;;;1.98;1.48;;;9.50;99.90;;;;;;5011859;28;20454;-85
2022/05/21 10:04:28;;;;;;;2.65;1.40;;;9.50;99.90;;;;;;5010660;28;20438;-83
2022/05/21 10:10:59;;;;;;;2.22;1.20;;;9.60;99.90;;;;;;5009476;28;20501;-85
2022/05/21 10:13:30;;;;;;;1.75;1.20;;;9.60;99.90;;;;;;5016296;28;20416;-84
2022/05/21 10:16:39;;;;;;;3.00;1.30;;;9.50;99.90;;;;;;5036661;28;20427;-85
2022/05/21 10:19:46;;;;;;;1.55;1.20;;;9.50;99.90;;;;;;5017014;28;20906;-85
2022/05/21 10:22:32;;;;;;;3.17;1.57;;;9.60;99.90;;;;;;5010392;28;20389;-84
2022/05/21 10:25:12;;;;;;;1.73;1.25;;;9.60;99.90;;;;;;5012967;28;20477;-84
2022/05/21 10:28:08;;;;;;;1.80;1.38;;;9.60;99.90;;;;;;5007793;28;20441;-85
2022/05/21 10:31:10;;;;;;;2.47;1.45;;;9.60;99.90;;;;;;5012637;28;20439;-83
2022/05/21 10:33:53;;;;;;;2.00;1.48;;;9.60;99.90;;;;;;5015561;28;20411;-85
2022/05/21 10:36:51;;;;;;;1.77;1.40;;;9.60;99.90;;;;;;5019086;28;20477;-84
2022/05/21 10:39:43;;;;;;;2.72;1.60;;;9.60;99.90;;;;;;4991952;28;20389;-85
2022/05/21 10:42:46;;;;;;;1.92;1.40;;;9.60;99.90;;;;;;5034378;28;20401;-84
2022/05/21 10:45:39;;;;;;;2.37;1.70;;;9.50;99.90;;;;;;5014331;28;20925;-84
2022/05/21 10:48:36;;;;;;;2.60;1.77;;;9.50;99.90;;;;;;5037301;28;20987;-84
2022/05/21 10:51:16;;;;;;;2.72;1.73;;;9.60;99.90;;;;;;5019579;28;20414;-84
2022/05/21 10:53:56;;;;;;;2.22;1.73;;;9.50;99.90;;;;;;5008520;28;20823;-85
2022/05/21 10:57:00;;;;;;;3.63;1.80;;;9.50;99.90;;;;;;5040192;28;20394;-85
2022/05/21 11:00:00;;;;;;;2.85;1.90;;;9.50;99.90;;;;;;4990986;28;20443;-84
2022/05/21 11:02:50;;;;;;;2.90;1.88;;;9.50;99.90;;;;;;5030322;28;20415;-84
2022/05/21 11:05:49;;;;;;;2.42;1.83;;;9.60;99.90;;;;;;5043372;28;20494;-85
2022/05/21 11:08:29;;;;;;;2.22;1.65;;;9.60;99.90;;;;;;5009458;28;20415;-85
2022/05/21 11:11:11;;;;;;;2.47;1.73;;;9.60;99.90;;;;;;5021110;28;20509;-85
2022/05/21 11:13:57;;;;;;;3.15;2.00;;;9.60;99.90;;;;;;5042416;28;20449;-86
2022/05/21 11:16:44;;;;;;;2.28;1.75;;;9.50;99.90;;;;;;5040919;28;20389;-85
2022/05/21 11:19:28;;;;;;;3.55;1.90;;;9.50;99.90;;;;;;5016326;28;20392;-86
2022/05/21 11:22:09;;;;;;;3.08;1.80;;;9.60;99.90;;;;;;5035641;28;20458;-85
2022/05/21 11:24:45;;;;;;;2.47;1.65;;;9.60;99.90;;;;;;5004598;28;20397;-84
2022/05/21 11:27:24;;;;;;;3.08;2.10;;;9.60;99.90;;;;;;5014933;28;20396;-84
2022/05/21 11:30:08;;;;;;;3.50;2.00;;;9.70;99.90;;;;;;5038641;28;20903;-86
2022/05/21 11:38:39;;;;;;;2.00;1.80;;;9.70;99.90;;;;;;5008261;28;20401;-85
2022/05/21 11:41:25;;;;;;;3.00;1.83;;;9.70;99.90;;;;;;5015879;28;20882;-86
2022/05/21 11:47:08;;;;;;;2.60;1.90;;;9.60;99.90;;;;;;5009250;28;20397;-86
2022/05/21 11:50:00;;;;;;;3.15;1.95;;;9.70;99.90;;;;;;5006689;28;20431;-85
2022/05/21 11:52:27;;;;;;;3.58;2.25;;;9.70;99.90;;;;;;5015852;28;20757;-84
2022/05/21 11:54:58;;;;;;;3.30;1.90;;;9.70;99.90;;;;;;5019854;28;20402;-85
2022/05/21 11:57:37;;;;;;;3.72;2.10;;;9.60;99.90;;;;;;5013821;28;20437;-86
2022/05/21 12:00:07;;;;;;;3.13;2.08;;;9.60;99.90;;;;;;4995724;28;20411;-84
2022/05/21 12:02:58;;;;;;;3.20;1.85;;;9.60;99.90;;;;;;5000488;28;20490;-86
2022/05/21 12:05:40;;;;;;;3.40;2.13;;;9.60;99.90;;;;;;4989364;28;20393;-85
2022/05/21 12:08:23;;;;;;;3.60;2.10;;;9.60;99.90;;;;;;4987255;28;20420;-83
2022/05/21 12:11:04;;;;;;;3.30;2.20;;;9.60;99.90;;;;;;5000131;28;20546;-85
2022/05/21 12:13:36;;;;;;;4.00;2.38;;;9.60;99.90;;;;;;5007903;28;20448;-84
2022/05/21 12:16:22;;;;;;;3.58;2.20;;;9.60;99.90;;;;;;5007298;28;20407;-85
2022/05/21 12:19:00;;;;;;;2.42;1.95;;;9.60;99.90;;;;;;5000261;28;20402;-84
2022/05/21 12:21:39;;;;;;;3.42;1.98;;;9.60;99.90;;;;;;5006196;28;20414;-85
2022/05/21 12:24:34;;;;;;;2.85;2.00;;;9.70;99.90;;;;;;5007948;28;20407;-84
2022/05/21 12:27:21;;;;;;;3.13;2.25;;;9.70;99.90;;;;;;4999387;28;20415;-84
2022/05/21 12:29:56;;;;;;;2.85;2.03;;;9.70;99.90;;;;;;5004389;28;20877;-86
2022/05/21 12:32:25;;;;;;;4.32;2.60;;;9.70;99.90;;;;;;5010473;28;20405;-85
2022/05/21 12:35:07;;;;;;;2.97;2.00;;;9.70;99.90;;;;;;5014643;28;20406;-85
2022/05/21 12:37:48;;;;;;;3.55;2.00;;;9.60;99.90;;;;;;5014944;28;20397;-85
2022/05/21 12:40:31;;;;;;;2.72;2.00;;;9.60;99.90;;;;;;5013310;28;20407;-85
2022/05/21 12:43:11;;;;;;;2.88;2.00;;;9.60;99.90;;;;;;5018139;28;20927;-84
2022/05/21 12:45:53;;;;;;;2.60;2.00;;;9.60;99.90;;;;;;5013947;28;20889;-84
2022/05/21 12:48:34;;;;;;;3.05;1.75;;;9.70;99.90;;;;;;5017174;28;20401;-85
2022/05/21 12:51:08;;;;;;;2.60;2.00;;;9.70;99.90;;;;;;5000023;28;20428;-86
2022/05/21 12:53:58;;;;;;;2.80;1.98;;;9.70;99.90;;;;;;5022262;28;20410;-83
2022/05/21 12:56:37;;;;;;;3.97;2.35;;;9.70;99.90;;;;;;5013943;28;20482;-85
2022/05/21 12:59:06;;;;;;;1.92;1.60;;;9.60;99.90;;;;;;5029966;28;20433;-85
2022/05/21 13:01:40;;;;;;;2.33;1.80;;;9.70;99.90;;;;;;5019207;28;20402;-84
2022/05/21 13:04:29;;;;;;;3.00;1.90;;;9.60;99.90;;;;;;5017893;28;20402;-84
2022/05/21 13:07:10;;;;;;;3.40;2.20;;;9.60;99.90;;;;;;5011225;28;20419;-85
2022/05/21 13:10:00;;;;;;;2.33;1.73;;;9.60;99.90;;;;;;5011591;28;20408;-84
2022/05/21 13:12:49;;;;;;;2.80;1.80;;;9.60;99.90;;;;;;5016144;28;20454;-85
2022/05/21 13:15:29;;;;;;;2.78;1.80;;;9.60;99.90;;;;;;5010896;28;20431;-85
2022/05/21 13:18:19;;;;;;;3.10;1.92;;;9.60;99.90;;;;;;5020341;28;20932;-84
2022/05/21 13:21:30;;;;;;;2.30;1.50;;;9.70;99.90;;;;;;5019130;28;20409;-85
2022/05/21 13:24:27;;;;;;;3.10;1.75;;;9.60;99.90;;;;;;5012307;28;20399;-86
2022/05/21 13:27:16;;;;;;;2.20;1.70;;;9.60;99.90;;;;;;5014319;28;20427;-85
2022/05/21 13:29:46;;;;;;;2.65;2.00;;;9.70;99.90;;;;;;5010747;28;20406;-86
2022/05/21 13:32:34;;;;;;;2.40;1.75;;;9.70;99.90;;;;;;5016520;28;20478;-84
2022/05/21 13:35:18;;;;;;;2.88;1.77;;;9.70;99.90;;;;;;5016269;28;20434;-85
2022/05/21 13:37:46;;;;;;;2.10;1.70;;;9.70;99.90;;;;;;5021332;28;20399;-85
2022/05/21 13:40:34;;;;;;;2.20;1.70;;;9.70;99.90;;;;;;5030545;28;20472;-85
2022/05/21 13:43:09;;;;;;;2.78;2.00;;;9.70;99.90;;;;;;5016079;28;20405;-85
2022/05/21 13:45:52;;;;;;;3.13;2.10;;;9.70;99.90;;;;;;5013858;28;20418;-85
2022/05/21 13:48:22;;;;;;;2.60;2.25;;;9.70;99.90;;;;;;5027112;28;20397;-85
2022/05/21 13:50:50;;;;;;;2.75;2.00;;;9.70;99.90;;;;;;5016218;28;20420;-85
2022/05/21 13:53:28;;;;;;;2.80;2.00;;;9.60;99.90;;;;;;4998998;28;20416;-85
2022/05/21 13:56:04;;;;;;;3.00;2.20;;;9.60;99.90;;;;;;5013965;28;20454;-85
2022/05/21 13:58:38;;;;;;;2.80;2.10;;;9.60;99.90;;;;;;5015454;28;20387;-84
2022/05/21 14:01:30;;;;;;;3.70;2.20;;;9.60;99.90;;;;;;5015612;28;20482;-85
2022/05/21 14:04:10;;;;;;;3.38;2.13;;;9.60;99.90;;;;;;5007594;28;20405;-85
2022/05/21 14:06:42;;;;;;;3.85;2.08;;;9.60;99.90;;;;;;4996811;28;20470;-84
2022/05/21 14:09:23;;;;;;;2.58;1.90;;;9.50;99.90;;;;;;5012042;28;20897;-84
2022/05/21 14:12:03;;;;;;;4.22;1.90;;;9.60;99.90;;;;;;5031449;28;20408;-84